Time;durP1;ratioP1;P1;durP2;ratioP2;P2;SDS_P1;SDS_P2;PMS_P1;PMS_P2;Temp;Humidity;BMP_temperature;BMP_pressure;BME280_temperature;BME280_humidity;BME280_pressure;Samples;Min_cycle;Max_cycle;Signal;HPM_P1;HPM_P2
2024/02/24 00:01:58;;;;;;;0.75;0.57;;;;;;;14.39;48.89;98576.28;4476226;31;34040;-83
2024/02/24 00:04:26;;;;;;;0.10;0.10;;;;;;;14.34;48.35;98573.13;4467200;31;33093;-83
2024/02/24 00:06:55;;;;;;;1.33;1.25;;;;;;;14.41;48.19;98570.81;4472455;31;34533;-83
2024/02/24 00:09:22;;;;;;;0.50;0.50;;;;;;;14.44;48.31;98571.44;4478162;31;33489;-82
2024/02/24 00:11:50;;;;;;;0.35;0.35;;;;;;;14.45;48.40;98570.47;4475254;31;34897;-82
2024/02/24 00:14:18;;;;;;;1.25;1.17;;;;;;;14.37;48.71;98572.88;4491538;31;32125;-82
2024/02/24 00:16:46;;;;;;;0.00;0.00;;;;;;;14.59;48.10;98569.41;4489973;31;32090;-83
2024/02/24 00:19:14;;;;;;;0.85;0.85;;;;;;;14.67;47.79;98568.78;4479091;31;33819;-84
2024/02/24 00:21:42;;;;;;;1.20;1.10;;;;;;;14.39;48.44;98570.97;4489770;31;32424;-83
2024/02/24 00:24:10;;;;;;;0.50;0.50;;;;;;;14.32;48.67;98577.69;4494545;31;34518;-84
2024/02/24 00:26:38;;;;;;;3.78;1.80;;;;;;;14.44;48.19;98574.09;4481797;31;34110;-84
2024/02/24 00:29:06;;;;;;;0.37;0.37;;;;;;;14.44;48.55;98575.91;4475757;31;33379;-84
2024/02/24 00:31:33;;;;;;;0.30;0.25;;;;;;;14.37;48.46;98572.03;4492414;31;34478;-84
2024/02/24 00:34:02;;;;;;;0.95;0.80;;;;;;;14.36;48.74;98579.16;4477250;31;34407;-83
2024/02/24 00:36:29;;;;;;;0.43;0.43;;;;;;;14.39;48.24;98578.09;4487493;31;34272;-83
2024/02/24 00:38:57;;;;;;;0.68;0.68;;;;;;;14.39;48.59;98581.59;4477546;31;33905;-83
2024/02/24 00:41:25;;;;;;;0.50;0.50;;;;;;;14.51;48.18;98580.63;4467243;31;34487;-83
2024/02/24 00:43:52;;;;;;;0.70;0.55;;;;;;;14.53;47.79;98578.72;4465307;31;32794;-83
2024/02/24 00:46:20;;;;;;;0.70;0.70;;;;;;;14.16;48.48;98578.06;4490857;31;33007;-83
2024/02/24 00:48:48;;;;;;;1.12;1.10;;;;;;;14.37;48.05;98577.34;4477695;31;34556;-83
2024/02/24 00:51:15;;;;;;;0.75;0.50;;;;;;;14.70;47.34;98571.19;4477926;31;34915;-84
2024/02/24 00:53:43;;;;;;;1.30;0.85;;;;;;;14.51;47.46;98572.66;4462824;31;32851;-83
2024/02/24 00:56:11;;;;;;;3.22;1.17;;;;;;;14.33;48.31;98571.41;4476431;31;33568;-84
2024/02/24 00:58:39;;;;;;;1.65;1.12;;;;;;;14.27;48.76;98569.25;4479094;31;33477;-84
2024/02/24 01:01:07;;;;;;;4.20;1.25;;;;;;;14.75;47.27;98561.88;4477654;31;33865;-84
2024/02/24 01:03:35;;;;;;;1.27;1.17;;;;;;;14.44;47.90;98566.13;4477485;31;33872;-84
2024/02/24 01:06:02;;;;;;;0.10;0.10;;;;;;;14.62;47.07;98555.03;4476105;31;34135;-83
2024/02/24 01:08:30;;;;;;;0.50;0.50;;;;;;;14.64;47.12;98559.25;4477487;31;33305;-83
2024/02/24 01:10:58;;;;;;;1.67;1.17;;;;;;;14.34;48.18;98555.38;4491256;31;34293;-83
2024/02/24 01:13:26;;;;;;;0.03;0.03;;;;;;;14.44;47.88;98547.53;4490692;31;33864;-83
2024/02/24 01:15:53;;;;;;;2.15;1.20;;;;;;;14.17;48.49;98552.37;4464199;31;31721;-83
2024/02/24 01:18:23;;;;;;;1.02;0.70;;;;;;;14.17;48.35;98549.72;4476900;31;33838;-83
2024/02/24 01:20:51;;;;;;;0.35;0.35;;;;;;;14.30;48.12;98550.44;4477651;31;33501;-83
2024/02/24 01:23:21;;;;;;;0.35;0.35;;;;;;;14.12;48.64;98559.84;4476164;31;33050;-83
2024/02/24 01:25:49;;;;;;;6.22;1.60;;;;;;;14.33;47.93;98550.19;4489167;31;32805;-83
2024/02/24 01:28:17;;;;;;;0.62;0.62;;;;;;;14.27;47.90;98561.28;4478351;31;32504;-84
2024/02/24 01:30:44;;;;;;;2.30;1.20;;;;;;;14.38;47.68;98555.97;4473611;31;34710;-83
2024/02/24 01:33:12;;;;;;;1.10;0.82;;;;;;;14.33;47.53;98555.50;4486805;31;33525;-83
2024/02/24 01:35:41;;;;;;;1.23;0.80;;;;;;;14.27;47.54;98553.31;4477196;31;32265;-83
2024/02/24 01:38:09;;;;;;;0.22;0.22;;;;;;;14.46;47.62;98550.91;4477529;31;33638;-83
2024/02/24 01:40:37;;;;;;;1.67;1.42;;;;;;;14.50;47.58;98551.53;4475726;31;32920;-83
2024/02/24 01:43:27;;;;;;;1.33;0.98;;;;;;;14.54;47.46;98553.84;4485369;31;33798;-83
2024/02/24 01:45:55;;;;;;;0.10;0.10;;;;;;;14.48;47.21;98553.47;4476898;31;32416;-82
2024/02/24 01:48:23;;;;;;;0.45;0.45;;;;;;;14.42;47.57;98554.75;4487750;31;33924;-82
2024/02/24 01:50:51;;;;;;;0.57;0.17;;;;;;;14.76;46.57;98549.44;4488674;31;33679;-82
2024/02/24 01:53:21;;;;;;;0.80;0.80;;;;;;;14.52;47.65;98553.09;4488501;31;33533;-83
2024/02/24 01:55:50;;;;;;;0.00;0.00;;;;;;;14.70;47.17;98549.94;4490915;31;34141;-82
2024/02/24 01:58:18;;;;;;;1.33;1.00;;;;;;;14.69;47.06;98553.56;4483182;31;33579;-83
2024/02/24 02:00:46;;;;;;;0.10;0.10;;;;;;;14.85;46.87;98551.34;4482472;31;34686;-83
2024/02/24 02:03:14;;;;;;;0.57;0.57;;;;;;;14.67;47.30;98555.50;4465571;31;33002;-83
2024/02/24 02:05:42;;;;;;;0.10;0.10;;;;;;;14.65;47.57;98562.75;4491157;31;32673;-83
2024/02/24 02:08:10;;;;;;;1.45;1.02;;;;;;;14.41;48.50;98566.34;4474941;31;32387;-83
2024/02/24 02:10:46;;;;;;;0.47;0.47;;;;;;;14.69;47.51;98577.47;4478808;31;34999;-83
2024/02/24 02:13:14;;;;;;;0.20;0.20;;;;;;;14.19;49.17;98571.66;4496540;31;32829;-82
2024/02/24 02:15:42;;;;;;;0.43;0.43;;;;;;;14.21;49.63;98569.75;4479446;31;33024;-82
2024/02/24 02:18:10;;;;;;;0.37;0.37;;;;;;;14.19;49.87;98566.34;4493228;31;34316;-82
2024/02/24 02:20:38;;;;;;;1.15;0.32;;;;;;;14.28;50.11;98568.28;4489863;31;34341;-82
2024/02/24 02:23:06;;;;;;;2.58;0.70;;;;;;;14.33;49.60;98571.41;4488624;31;34043;-82
2024/02/24 02:25:33;;;;;;;0.40;0.40;;;;;;;14.44;49.81;98576.75;4490683;31;32728;-82
2024/02/24 02:28:01;;;;;;;2.10;1.48;;;;;;;14.39;50.06;98576.28;4490256;31;33601;-83
2024/02/24 02:30:29;;;;;;;0.55;0.40;;;;;;;14.37;50.26;98575.53;4491118;31;33593;-83
2024/02/24 02:32:56;;;;;;;0.45;0.45;;;;;;;14.67;49.46;98577.63;4490403;31;34571;-83
2024/02/24 02:35:24;;;;;;;1.77;0.80;;;;;;;14.33;49.88;98587.34;4490925;31;33310;-83
2024/02/24 02:37:52;;;;;;;0.52;0.30;;;;;;;14.31;50.22;98584.00;4478549;31;34060;-83
2024/02/24 02:40:20;;;;;;;0.62;0.62;;;;;;;14.29;51.22;98591.22;4477587;31;34029;-83
2024/02/24 02:42:47;;;;;;;0.37;0.37;;;;;;;14.03;51.50;98596.75;4475494;31;34351;-83
2024/02/24 02:45:15;;;;;;;0.20;0.17;;;;;;;13.98;51.42;98598.91;4489440;31;33373;-83
2024/02/24 02:47:48;;;;;;;0.03;0.03;;;;;;;14.30;50.86;98600.88;4478093;31;32867;-82
2024/02/24 02:50:16;;;;;;;0.43;0.43;;;;;;;14.17;52.07;98608.09;4488257;31;33949;-82
2024/02/24 02:52:43;;;;;;;0.45;0.45;;;;;;;14.35;51.27;98590.75;4490631;31;34039;-82
2024/02/24 02:55:11;;;;;;;0.43;0.35;;;;;;;14.23;51.68;98597.00;4490748;31;34021;-82
2024/02/24 02:57:39;;;;;;;0.30;0.30;;;;;;;14.07;52.68;98595.53;4476643;31;32647;-82
2024/02/24 03:00:07;;;;;;;0.60;0.60;;;;;;;14.11;52.50;98603.28;4491130;31;33344;-82
2024/02/24 03:02:35;;;;;;;0.50;0.50;;;;;;;13.92;53.15;98617.97;4492238;31;33775;-82
2024/02/24 03:05:03;;;;;;;0.65;0.65;;;;;;;14.13;52.58;98627.88;4492087;31;33284;-82
2024/02/24 03:07:30;;;;;;;0.73;0.70;;;;;;;14.10;52.95;98628.97;4478978;31;32725;-82
2024/02/24 03:09:58;;;;;;;0.77;0.77;;;;;;;14.40;52.24;98635.53;4491559;31;33921;-82
2024/02/24 03:12:26;;;;;;;0.28;0.28;;;;;;;14.20;53.09;98634.44;4488193;31;34040;-82
2024/02/24 03:14:54;;;;;;;0.37;0.37;;;;;;;13.82;53.50;98648.81;4470200;31;31781;-82
2024/02/24 03:17:21;;;;;;;0.50;0.50;;;;;;;13.77;52.77;98653.63;4476504;31;33729;-82
2024/02/24 03:19:49;;;;;;;0.75;0.60;;;;;;;13.55;53.27;98668.47;4487806;31;33901;-81
2024/02/24 03:22:17;;;;;;;0.08;0.08;;;;;;;13.52;53.79;98675.78;4493353;31;34143;-81
2024/02/24 03:24:44;;;;;;;0.30;0.30;;;;;;;13.52;53.92;98681.09;4490803;31;35897;-81
2024/02/24 03:27:12;;;;;;;2.72;1.02;;;;;;;13.25;54.96;98682.16;4476569;31;32425;-81
2024/02/24 03:29:40;;;;;;;0.82;0.68;;;;;;;13.55;54.51;98675.56;4478550;31;33898;-82
2024/02/24 03:32:07;;;;;;;0.10;0.10;;;;;;;13.44;55.92;98673.72;4479509;31;33528;-82
2024/02/24 03:34:35;;;;;;;0.13;0.13;;;;;;;13.27;55.83;98674.09;4478646;31;32027;-82
2024/02/24 03:37:04;;;;;;;0.55;0.55;;;;;;;13.26;57.40;98669.75;4489942;31;33650;-82
2024/02/24 03:39:32;;;;;;;0.73;0.43;;;;;;;13.36;57.53;98665.47;4480105;31;34348;-82
2024/02/24 03:42:00;;;;;;;0.60;0.55;;;;;;;13.42;56.66;98675.63;4491015;31;33612;-82
2024/02/24 03:44:27;;;;;;;1.58;1.00;;;;;;;13.52;56.41;98686.41;4478255;31;33384;-82
2024/02/24 03:46:55;;;;;;;4.10;0.70;;;;;;;13.61;56.48;98683.06;4491147;31;33907;-82
2024/02/24 03:49:23;;;;;;;0.37;0.30;;;;;;;13.57;57.01;98687.75;4473490;31;33512;-82
2024/02/24 03:51:51;;;;;;;1.30;0.43;;;;;;;13.63;57.12;98682.97;4489279;31;34165;-82
2024/02/24 03:54:19;;;;;;;1.85;0.90;;;;;;;13.57;57.63;98679.78;4467024;31;32215;-82
2024/02/24 03:56:49;;;;;;;0.17;0.17;;;;;;;13.63;57.66;98694.44;4480183;31;34914;-82
2024/02/24 03:59:17;;;;;;;0.65;0.65;;;;;;;13.52;58.43;98689.91;4475589;31;32248;-82
2024/02/24 04:01:45;;;;;;;0.90;0.43;;;;;;;13.50;58.58;98691.81;4479094;31;34629;-81
2024/02/24 04:04:12;;;;;;;0.57;0.57;;;;;;;13.39;59.48;98704.16;4477148;31;32731;-82
2024/02/24 04:06:43;;;;;;;0.30;0.30;;;;;;;13.38;59.57;98700.66;4475570;31;35162;-81
2024/02/24 04:09:11;;;;;;;0.10;0.10;;;;;;;13.45;59.48;98701.94;4493172;31;33628;-81
2024/02/24 04:11:39;;;;;;;0.57;0.52;;;;;;;13.36;59.99;98702.59;4489109;31;34131;-81
2024/02/24 04:14:06;;;;;;;0.82;0.82;;;;;;;13.28;59.82;98703.13;4478780;31;32347;-81
2024/02/24 04:16:34;;;;;;;0.75;0.52;;;;;;;13.25;60.42;98699.88;4476346;31;33770;-81
2024/02/24 04:19:02;;;;;;;3.85;0.80;;;;;;;13.26;60.53;98706.88;4475779;31;32189;-81
2024/02/24 04:21:30;;;;;;;0.65;0.65;;;;;;;13.15;60.86;98704.09;4478172;31;32726;-81
2024/02/24 04:23:58;;;;;;;0.10;0.10;;;;;;;13.24;60.55;98709.62;4477225;31;34177;-81
2024/02/24 04:26:26;;;;;;;0.45;0.43;;;;;;;12.91;61.01;98707.53;4492680;31;34742;-81
2024/02/24 04:28:53;;;;;;;0.50;0.50;;;;;;;13.06;59.62;98708.28;4491217;31;34302;-81
2024/02/24 04:31:21;;;;;;;1.65;1.42;;;;;;;13.08;59.28;98704.53;4492582;31;33407;-83
2024/02/24 04:33:49;;;;;;;0.45;0.37;;;;;;;13.11;58.94;98702.66;4489071;31;33313;-84
2024/02/24 04:36:16;;;;;;;0.28;0.28;;;;;;;13.24;58.84;98696.34;4478928;31;34266;-82
2024/02/24 04:38:44;;;;;;;0.43;0.43;;;;;;;13.04;58.46;98704.87;4478668;31;34420;-82
2024/02/24 04:41:13;;;;;;;0.52;0.52;;;;;;;13.04;58.31;98712.81;4479970;31;33850;-82
2024/02/24 04:43:41;;;;;;;2.00;1.33;;;;;;;13.12;57.75;98699.03;4492599;31;34306;-82
2024/02/24 04:46:08;;;;;;;0.40;0.37;;;;;;;12.98;57.85;98714.09;4491501;31;32647;-83
2024/02/24 04:48:36;;;;;;;0.40;0.20;;;;;;;13.18;57.30;98707.38;4494557;31;33698;-83
2024/02/24 04:51:04;;;;;;;0.00;0.00;;;;;;;13.15;57.45;98704.97;4491126;31;34001;-83
2024/02/24 04:53:31;;;;;;;0.50;0.37;;;;;;;13.29;57.12;98717.22;4474409;31;31993;-83
2024/02/24 04:55:59;;;;;;;0.00;0.00;;;;;;;13.33;56.61;98718.72;4492157;31;34516;-82
2024/02/24 04:58:27;;;;;;;0.50;0.40;;;;;;;13.15;57.68;98722.66;4476197;31;33859;-82
2024/02/24 05:00:54;;;;;;;0.30;0.30;;;;;;;13.53;56.38;98714.59;4490992;31;33872;-82
2024/02/24 05:03:22;;;;;;;0.10;0.10;;;;;;;13.46;56.60;98708.91;4464969;31;32353;-82
2024/02/24 05:05:49;;;;;;;0.85;0.65;;;;;;;13.37;56.95;98714.88;4477147;31;33406;-82
2024/02/24 05:08:17;;;;;;;0.98;0.45;;;;;;;13.28;57.35;98724.34;4477515;31;34364;-82
2024/02/24 05:10:45;;;;;;;0.15;0.15;;;;;;;13.42;56.75;98717.22;4475385;31;33348;-82
2024/02/24 05:13:12;;;;;;;0.00;0.00;;;;;;;13.41;57.04;98719.00;4487319;31;32216;-82
2024/02/24 05:15:40;;;;;;;0.28;0.28;;;;;;;13.40;57.14;98714.69;4478250;31;33001;-82
2024/02/24 05:18:07;;;;;;;0.40;0.40;;;;;;;13.39;57.01;98707.69;4491152;31;33318;-81
2024/02/24 05:20:35;;;;;;;0.10;0.10;;;;;;;13.26;57.54;98717.47;4479239;31;34282;-81
2024/02/24 05:23:03;;;;;;;0.47;0.43;;;;;;;13.09;58.01;98734.53;4490242;31;33761;-81
2024/02/24 05:25:31;;;;;;;0.30;0.30;;;;;;;13.10;57.63;98753.94;4490979;31;32699;-82
2024/02/24 05:27:59;;;;;;;1.75;0.95;;;;;;;13.28;57.01;98750.00;4490273;31;34980;-82
2024/02/24 05:30:26;;;;;;;0.20;0.20;;;;;;;13.22;57.16;98758.41;4492054;31;32423;-82
2024/02/24 05:32:54;;;;;;;3.22;1.33;;;;;;;13.12;57.84;98755.53;4477151;31;35260;-82
2024/02/24 05:35:25;;;;;;;0.82;0.82;;;;;;;13.03;57.98;98761.47;4489572;31;33428;-83
2024/02/24 05:37:54;;;;;;;0.17;0.17;;;;;;;13.11;57.59;98760.94;4489187;31;34085;-83
2024/02/24 05:40:22;;;;;;;0.52;0.52;;;;;;;12.85;58.81;98766.25;4475560;31;33392;-83
2024/02/24 05:42:50;;;;;;;0.20;0.20;;;;;;;12.71;58.93;98780.44;4465798;31;33348;-83
2024/02/24 05:45:18;;;;;;;0.37;0.37;;;;;;;12.69;59.01;98798.25;4475928;31;33511;-83
2024/02/24 05:47:46;;;;;;;1.30;1.05;;;;;;;12.51;59.28;98805.63;4491947;31;33890;-82
2024/02/24 05:50:13;;;;;;;0.65;0.65;;;;;;;12.46;59.42;98802.47;4492644;31;33683;-82
2024/02/24 05:52:41;;;;;;;0.70;0.47;;;;;;;12.41;58.72;98809.03;4491994;31;33370;-82
2024/02/24 05:55:09;;;;;;;0.52;0.40;;;;;;;12.49;58.60;98812.84;4480100;31;34030;-82
2024/02/24 05:57:36;;;;;;;2.03;0.95;;;;;;;12.71;57.60;98804.28;4490885;31;34806;-81
2024/02/24 06:00:05;;;;;;;0.05;0.05;;;;;;;12.78;57.87;98807.38;4490230;31;34559;-81
2024/02/24 06:02:38;;;;;;;7.32;0.68;;;;;;;12.79;57.46;98811.72;4489450;31;33498;-81
2024/02/24 06:05:06;;;;;;;0.20;0.15;;;;;;;12.93;57.04;98813.41;4479511;31;34336;-82
2024/02/24 06:07:34;;;;;;;0.35;0.30;;;;;;;12.94;56.95;98810.66;4477312;31;33448;-82
2024/02/24 06:10:01;;;;;;;0.10;0.10;;;;;;;13.02;56.79;98832.19;4491992;31;34076;-83
2024/02/24 06:12:29;;;;;;;17.27;1.30;;;;;;;12.79;57.93;98851.44;4481921;31;33379;-83
2024/02/24 06:14:58;;;;;;;0.30;0.30;;;;;;;12.74;58.52;98853.56;4492895;31;33790;-83
2024/02/24 06:17:27;;;;;;;0.00;0.00;;;;;;;12.89;57.78;98841.06;4490139;31;33164;-83
2024/02/24 06:19:55;;;;;;;0.75;0.75;;;;;;;12.80;57.90;98845.19;4491522;31;32196;-83
2024/02/24 06:22:22;;;;;;;0.73;0.73;;;;;;;12.67;58.41;98844.31;4490877;31;33645;-82
2024/02/24 06:24:50;;;;;;;0.57;0.50;;;;;;;12.57;58.15;98852.88;4492865;31;32710;-82
2024/02/24 06:27:18;;;;;;;6.35;1.87;;;;;;;12.38;58.79;98852.41;4477802;31;32636;-82
2024/02/24 06:29:46;;;;;;;1.58;0.28;;;;;;;12.51;58.91;98852.47;4490284;31;33859;-83
2024/02/24 06:32:14;;;;;;;0.30;0.30;;;;;;;12.46;58.45;98857.22;4482516;31;31915;-82
2024/02/24 06:34:45;;;;;;;0.45;0.45;;;;;;;12.27;59.27;98858.41;4491810;31;34671;-82
2024/02/24 06:37:12;;;;;;;0.10;0.10;;;;;;;12.27;59.16;98860.22;4480837;31;32805;-82
2024/02/24 06:39:40;;;;;;;0.05;0.05;;;;;;;12.37;58.75;98865.75;4477770;31;32336;-83
2024/02/24 06:42:08;;;;;;;5.25;1.90;;;;;;;12.41;58.73;98875.19;4462990;31;31734;-84
2024/02/24 06:44:35;;;;;;;3.85;1.23;;;;;;;12.56;58.14;98888.28;4478852;31;33940;-83
2024/02/24 06:47:04;;;;;;;0.68;0.43;;;;;;;12.64;57.80;98889.56;4473080;32;33297;-83
2024/02/24 06:49:51;;;;;;;2.15;1.42;;;;;;;12.65;57.94;98888.63;4495569;31;33162;-84
2024/02/24 06:52:19;;;;;;;1.23;0.57;;;;;;;12.34;58.72;98890.63;4490826;31;33223;-82
2024/02/24 06:54:46;;;;;;;1.50;0.88;;;;;;;12.43;58.28;98887.38;4494818;31;33846;-81
2024/02/24 06:57:14;;;;;;;0.20;0.20;;;;;;;12.40;58.71;98895.53;4492759;31;33935;-81
2024/02/24 06:59:44;;;;;;;1.87;1.20;;;;;;;12.55;58.55;98891.88;4490526;31;34055;-82
2024/02/24 07:02:12;;;;;;;0.88;0.70;;;;;;;12.50;58.50;98891.31;4462437;31;33926;-83
2024/02/24 07:04:43;;;;;;;1.15;0.90;;;;;;;12.53;58.13;98893.78;4490922;31;33804;-82
2024/02/24 07:07:10;;;;;;;0.35;0.35;;;;;;;12.63;58.17;98901.09;4491248;31;35110;-82
2024/02/24 07:09:38;;;;;;;0.57;0.57;;;;;;;12.50;58.78;98904.56;4476989;31;34373;-83
2024/02/24 07:12:06;;;;;;;0.75;0.75;;;;;;;12.83;57.59;98913.88;4490584;31;33543;-83
2024/02/24 07:14:35;;;;;;;0.90;0.60;;;;;;;12.83;57.63;98924.47;4496556;31;32522;-83
2024/02/24 07:17:03;;;;;;;0.22;0.22;;;;;;;12.98;57.18;98926.09;4479209;31;33029;-83
2024/02/24 07:19:30;;;;;;;5.37;0.95;;;;;;;12.80;57.31;98927.31;4490261;31;34039;-83
2024/02/24 07:21:58;;;;;;;0.22;0.22;;;;;;;12.76;57.53;98924.03;4489949;31;33369;-82
2024/02/24 07:24:26;;;;;;;0.20;0.20;;;;;;;12.93;57.29;98924.72;4469150;31;33374;-82
2024/02/24 07:26:53;;;;;;;0.10;0.10;;;;;;;12.49;58.23;98924.06;4489318;31;34037;-82
2024/02/24 07:29:21;;;;;;;0.70;0.70;;;;;;;12.70;57.61;98942.97;4465913;31;32590;-82
2024/02/24 07:31:48;;;;;;;0.62;0.52;;;;;;;12.72;57.76;98950.81;4478980;31;33433;-82
2024/02/24 07:34:16;;;;;;;0.32;0.32;;;;;;;13.02;56.94;98958.53;4479370;31;33643;-82
2024/02/24 07:36:44;;;;;;;0.05;0.05;;;;;;;12.99;57.04;98954.28;4467204;32;32461;-82
2024/02/24 07:39:12;;;;;;;2.08;1.35;;;;;;;12.87;57.81;98957.75;4490248;31;33467;-82
2024/02/24 07:41:41;;;;;;;0.10;0.10;;;;;;;13.14;57.07;98962.16;4476247;31;31900;-82
2024/02/24 07:44:08;;;;;;;0.28;0.28;;;;;;;13.01;57.24;98957.69;4490300;31;34207;-82
2024/02/24 07:46:36;;;;;;;0.55;0.55;;;;;;;13.40;56.54;98963.94;4488337;31;34874;-83
2024/02/24 07:49:04;;;;;;;0.10;0.10;;;;;;;13.20;56.78;98961.75;4479633;31;33873;-82
2024/02/24 07:51:33;;;;;;;0.47;0.15;;;;;;;13.24;56.42;98953.50;4479879;31;33807;-82
2024/02/24 07:54:01;;;;;;;0.10;0.10;;;;;;;13.11;56.44;98949.97;4486460;31;34267;-82
2024/02/24 07:56:30;;;;;;;0.00;0.00;;;;;;;13.41;55.94;98957.66;4493913;31;34060;-81
2024/02/24 07:58:57;;;;;;;0.55;0.55;;;;;;;13.43;55.94;98970.81;4493021;31;34254;-81
2024/02/24 08:01:25;;;;;;;0.00;0.00;;;;;;;13.51;55.65;98977.28;4473944;31;33488;-81
2024/02/24 08:03:53;;;;;;;0.43;0.43;;;;;;;13.42;55.88;98971.75;4479156;31;33764;-81
2024/02/24 08:06:20;;;;;;;0.00;0.00;;;;;;;13.43;55.85;98976.94;4495341;31;34771;-81
2024/02/24 08:08:52;;;;;;;0.00;0.00;;;;;;;13.35;55.45;98976.66;4476627;31;33954;-81
2024/02/24 08:11:21;;;;;;;0.22;0.22;;;;;;;13.25;55.65;98981.72;4465723;31;34406;-82
2024/02/24 08:13:49;;;;;;;0.10;0.10;;;;;;;13.68;54.90;98973.47;4489509;31;34528;-81
2024/02/24 08:16:20;;;;;;;0.62;0.62;;;;;;;13.59;55.55;98979.41;4494190;31;33287;-82
2024/02/24 08:18:49;;;;;;;0.10;0.10;;;;;;;13.53;54.98;98993.97;4466652;31;33195;-80
2024/02/24 08:21:17;;;;;;;0.00;0.00;;;;;;;13.58;54.78;98997.16;4477235;31;34103;-81
2024/02/24 08:23:45;;;;;;;0.00;0.00;;;;;;;13.60;54.47;99002.34;4489253;31;32809;-81
2024/02/24 08:26:13;;;;;;;0.08;0.08;;;;;;;13.76;53.95;98996.81;4478761;31;33912;-81
2024/02/24 08:28:40;;;;;;;0.00;0.00;;;;;;;14.30;53.03;98991.22;4477192;31;32530;-81
2024/02/24 08:31:08;;;;;;;0.32;0.30;;;;;;;14.50;52.55;98992.47;4491409;31;33553;-81
2024/02/24 08:33:36;;;;;;;0.20;0.20;;;;;;;14.53;51.82;99003.72;4475897;31;35135;-81
2024/02/24 08:36:04;;;;;;;0.30;0.22;;;;;;;14.45;52.04;99006.06;4475739;31;32306;-81
2024/02/24 08:38:32;;;;;;;0.00;0.00;;;;;;;13.95;53.20;99020.25;4478280;31;32100;-80
2024/02/24 08:41:00;;;;;;;0.00;0.00;;;;;;;13.97;53.67;99015.72;4464692;31;32480;-81
2024/02/24 08:43:28;;;;;;;0.17;0.17;;;;;;;14.19;53.78;99025.63;4465476;31;32042;-81
2024/02/24 08:45:55;;;;;;;4.07;0.28;;;;;;;14.32;52.42;99024.66;4485241;31;33533;-81
2024/02/24 08:48:25;;;;;;;0.17;0.17;;;;;;;14.44;52.25;99015.00;4476409;31;32901;-81
2024/02/24 08:50:53;;;;;;;0.25;0.25;;;;;;;14.49;52.25;99012.88;4489597;31;33744;-81
2024/02/24 08:53:20;;;;;;;0.32;0.32;;;;;;;14.81;51.60;99001.69;4475391;31;33609;-81
2024/02/24 08:55:48;;;;;;;0.15;0.15;;;;;;;14.69;51.47;99015.88;4479701;31;33710;-81
2024/02/24 08:58:16;;;;;;;0.65;0.22;;;;;;;14.69;51.42;99013.22;4473812;31;32962;-81
2024/02/24 09:00:43;;;;;;;1.15;0.85;;;;;;;14.91;50.76;99018.69;4477880;31;33471;-81
2024/02/24 09:03:11;;;;;;;0.05;0.05;;;;;;;15.21;50.54;99022.66;4477154;31;32632;-81
2024/02/24 09:05:39;;;;;;;0.00;0.00;;;;;;;15.80;49.41;99018.13;4490261;31;32753;-81
2024/02/24 09:08:07;;;;;;;0.00;0.00;;;;;;;15.71;48.44;99024.16;4477074;31;32354;-81
2024/02/24 09:10:35;;;;;;;0.98;0.47;;;;;;;15.53;48.51;99028.22;4477441;31;34168;-81
2024/02/24 09:13:02;;;;;;;0.00;0.00;;;;;;;15.57;47.78;99030.53;4471966;31;34177;-81
2024/02/24 09:15:30;;;;;;;0.00;0.00;;;;;;;16.47;47.22;99022.59;4465048;31;32502;-81
2024/02/24 09:17:59;;;;;;;0.00;0.00;;;;;;;15.87;46.56;99039.81;4476818;31;33762;-81
2024/02/24 09:20:27;;;;;;;0.98;0.47;;;;;;;15.59;47.60;99046.38;4477286;31;33343;-81
2024/02/24 09:22:55;;;;;;;0.00;0.00;;;;;;;15.76;47.93;99042.41;4474981;31;32469;-81
2024/02/24 09:25:22;;;;;;;0.00;0.00;;;;;;;15.91;47.46;99046.59;4491403;31;34433;-82
2024/02/24 09:27:50;;;;;;;1.17;0.90;;;;;;;16.27;46.15;99050.81;4476343;31;32358;-81
2024/02/24 09:30:18;;;;;;;0.28;0.15;;;;;;;15.81;47.13;99056.25;4474849;31;32352;-81
2024/02/24 09:32:45;;;;;;;0.00;0.00;;;;;;;15.67;46.84;99056.47;4488763;31;33895;-81
2024/02/24 09:35:13;;;;;;;0.90;0.85;;;;;;;16.33;45.96;99062.81;4460705;31;32991;-81
2024/02/24 09:37:41;;;;;;;4.28;1.27;;;;;;;15.97;46.89;99064.75;4484822;31;33829;-81
2024/02/24 09:40:09;;;;;;;0.37;0.28;;;;;;;16.44;45.73;99054.84;4474488;31;32848;-82
2024/02/24 09:42:38;;;;;;;0.05;0.05;;;;;;;15.76;47.91;99069.03;4475500;31;33157;-81
2024/02/24 09:45:11;;;;;;;0.00;0.00;;;;;;;15.59;46.63;99079.13;4483566;31;33294;-82
2024/02/24 09:47:43;;;;;;;1.98;0.35;;;;;;;15.75;47.32;99078.84;4461664;31;32186;-81
2024/02/24 09:50:11;;;;;;;2.47;0.35;;;;;;;16.59;45.26;99074.91;4478249;31;30651;-81
2024/02/24 09:52:41;;;;;;;0.13;0.13;;;;;;;16.78;44.62;99074.31;4488054;31;33290;-82
2024/02/24 09:55:10;;;;;;;0.03;0.00;;;;;;;16.33;45.75;99093.00;4487455;31;34483;-81
2024/02/24 09:57:38;;;;;;;4.47;0.77;;;;;;;16.75;45.22;99095.88;4486875;31;34515;-81
2024/02/24 10:00:06;;;;;;;0.20;0.20;;;;;;;17.12;44.96;99098.25;4462371;31;32741;-81
2024/02/24 10:02:38;;;;;;;0.00;0.00;;;;;;;17.06;44.76;99098.75;4472961;31;32162;-81
2024/02/24 10:05:06;;;;;;;0.00;0.00;;;;;;;17.35;44.65;99102.53;4464043;31;32742;-82
2024/02/24 10:07:34;;;;;;;0.00;0.00;;;;;;;17.21;44.60;99109.97;4468431;31;33933;-82
2024/02/24 10:10:02;;;;;;;0.17;0.17;;;;;;;17.26;44.58;99110.44;4475046;31;32124;-81
2024/02/24 10:12:30;;;;;;;0.00;0.00;;;;;;;17.29;44.84;99120.88;4473721;31;34141;-81
2024/02/24 10:14:59;;;;;;;0.10;0.10;;;;;;;17.21;44.79;99123.31;4475018;31;34088;-81
2024/02/24 10:17:30;;;;;;;0.57;0.05;;;;;;;17.05;44.46;99121.91;4478876;31;32348;-81
2024/02/24 10:19:58;;;;;;;0.00;0.00;;;;;;;16.93;44.25;99114.88;4475408;31;31938;-81
2024/02/24 10:22:26;;;;;;;0.25;0.20;;;;;;;17.20;44.01;99111.81;4488509;31;33588;-82
2024/02/24 10:24:53;;;;;;;0.95;0.88;;;;;;;17.15;44.61;99106.84;4489531;31;33469;-81
2024/02/24 10:27:21;;;;;;;0.10;0.10;;;;;;;17.31;44.74;99109.09;4477317;31;34164;-82
2024/02/24 10:29:50;;;;;;;0.00;0.00;;;;;;;16.99;44.35;99114.38;4473229;31;33200;-82
2024/02/24 10:32:20;;;;;;;0.00;0.00;;;;;;;17.09;44.46;99118.03;4488884;31;33601;-83
2024/02/24 10:34:48;;;;;;;0.10;0.10;;;;;;;16.92;44.31;99118.53;4465109;31;34473;-83
2024/02/24 10:37:17;;;;;;;0.00;0.00;;;;;;;17.09;44.80;99114.47;4467272;31;32303;-83
2024/02/24 10:39:49;;;;;;;0.22;0.22;;;;;;;17.16;44.54;99115.69;4466258;31;34677;-83
2024/02/24 10:42:18;;;;;;;0.00;0.00;;;;;;;17.05;44.78;99115.72;4475178;31;35033;-83
2024/02/24 10:44:45;;;;;;;0.20;0.10;;;;;;;17.24;44.17;99107.91;4477878;31;33548;-83
2024/02/24 10:47:13;;;;;;;0.00;0.00;;;;;;;16.98;44.83;99123.38;4490042;31;33990;-83
2024/02/24 10:49:41;;;;;;;0.10;0.00;;;;;;;17.37;42.90;99118.41;4492753;31;34769;-83
2024/02/24 10:52:09;;;;;;;0.20;0.10;;;;;;;17.22;42.52;99123.19;4480051;31;33924;-83
2024/02/24 10:54:39;;;;;;;0.00;0.00;;;;;;;17.44;41.93;99118.75;4488416;31;33303;-83
2024/02/24 10:57:08;;;;;;;0.00;0.00;;;;;;;17.07;42.18;99121.78;4475998;31;32402;-83
2024/02/24 10:59:36;;;;;;;0.00;0.00;;;;;;;17.06;41.99;99120.94;4480770;31;33248;-83
2024/02/24 11:02:06;;;;;;;0.15;0.08;;;;;;;17.18;41.43;99115.56;4489865;31;34613;-83
2024/02/24 11:04:36;;;;;;;0.32;0.17;;;;;;;17.47;41.41;99116.69;4486806;31;33564;-83
2024/02/24 11:07:15;;;;;;;0.00;0.00;;;;;;;17.57;41.83;99111.44;4488861;31;34629;-83
2024/02/24 11:09:50;;;;;;;0.00;0.00;;;;;;;17.34;41.04;99111.53;4466770;31;32214;-83
2024/02/24 11:12:22;;;;;;;0.57;0.30;;;;;;;17.03;40.77;99115.84;4479747;31;33200;-83
2024/02/24 11:14:52;;;;;;;1.25;0.65;;;;;;;16.96;41.54;99108.47;4477504;31;34127;-83
2024/02/24 11:17:59;;;;;;;0.10;0.10;;;;;;;16.74;41.65;99115.53;4478671;31;33343;-83
2024/02/24 11:20:37;;;;;;;0.10;0.10;;;;;;;16.32;41.40;99125.91;4421294;32;32815;-83
2024/02/24 11:23:29;;;;;;;0.10;0.00;;;;;;;16.29;41.13;99120.00;4427846;32;32934;-81
2024/02/24 11:26:13;;;;;;;0.20;0.20;;;;;;;16.43;40.72;99126.91;4474801;31;34748;-81
2024/02/24 11:28:45;;;;;;;0.00;0.00;;;;;;;16.40;40.41;99122.66;4474898;31;33700;-81
2024/02/24 11:31:37;;;;;;;3.05;0.30;;;;;;;16.53;40.91;99118.06;4475776;31;31960;-81
2024/02/24 11:34:09;;;;;;;0.00;0.00;;;;;;;16.64;40.50;99119.88;4476503;31;34021;-81
2024/02/24 11:36:41;;;;;;;0.35;0.35;;;;;;;16.29;40.88;99125.31;4474871;31;33403;-81
2024/02/24 11:39:11;;;;;;;0.10;0.10;;;;;;;16.25;40.86;99113.19;4478390;31;34278;-81
2024/02/24 11:41:43;;;;;;;0.43;0.30;;;;;;;16.06;40.78;99125.28;4488776;31;33852;-81